»·PEaware :: N94PX KTEX-KDEN

N94PX :: KTEX-KDEN

FLIGHT INFORMATION

Flight Status: Arrived
Operator: Privately registered:
United States
More flights under this callsign
Pilot: Ian G. (41107)
Aircraft: SOCATA TBM-850
(TBM8)
More flights by this aircraft type
Origin: KTEX Telluride Regl
United States
Destination: KDEN Denver Intl
United States
More flights between these airports :: More routes between these airports
Route: ETL HBU LARKS2
File this flight plan on PilotEdge
Remarks: RMK / SIMBRIEF
Altitude:
(Current/Filed)
27,000ft
Speed:
(Current/Filed)
317kts
Departed: 08-Oct-23 09:20 AM
Arrived: 08-Oct-23 10:18 AM
Distance/Time
Traveled:
189nm/0:58
Distance/Time
To Go:
Arrived

Flight Plot

Page will automatically refresh every two minutes.

Flight plan parsing failed; only flown route is shown


Map Options




Map Legend


Flown Route
Filed Route
Departure Airport
Arrival Airport
Navaid (VOR, NDB)
Fix

Horizontal Profiles

Position Reports

Time Latitude Longitude Heading Altitude Ground
Speed
08-Oct-23 09:12 37.954264 -107.902719 278 9052ft 0kts
08-Oct-23 09:13 37.954264 -107.902719 278 9052ft 0kts
08-Oct-23 09:14 37.954264 -107.902719 278 9052ft 0kts
08-Oct-23 09:15 37.954264 -107.902719 278 9052ft 0kts
08-Oct-23 09:16 37.954264 -107.902719 278 9052ft 0kts
08-Oct-23 09:17 37.953822 -107.902540 133 9052ft 8kts
08-Oct-23 09:18 37.952622 -107.901273 186 9046ft 10kts
08-Oct-23 09:19 37.955682 -107.917832 285 9069ft 115kts
08-Oct-23 09:20 37.965224 -107.964223 286 10506ft 163kts
08-Oct-23 09:21 37.981615 -108.020577 288 12601ft 162kts
08-Oct-23 09:22 37.995191 -108.075538 288 14724ft 167kts
08-Oct-23 09:23 38.009429 -108.133202 288 16635ft 176kts
08-Oct-23 09:24 38.024984 -108.194149 302 18509ft 186kts
08-Oct-23 09:25 38.065843 -108.183717 74 20190ft 191kts
08-Oct-23 09:26 38.087726 -108.120709 67 22023ft 197kts
08-Oct-23 09:27 38.109966 -108.055784 67 23934ft 203kts
08-Oct-23 09:28 38.132843 -107.988957 67 25542ft 209kts
08-Oct-23 09:29 38.156410 -107.919918 67 27099ft 216kts
08-Oct-23 09:30 38.183087 -107.841179 67 27326ft 269kts
08-Oct-23 09:31 38.214475 -107.748777 67 27269ft 296kts
08-Oct-23 09:32 38.247707 -107.650551 67 27216ft 307kts
08-Oct-23 09:33 38.281395 -107.549856 66 27205ft 310kts
08-Oct-23 09:34 38.315511 -107.448617 66 27200ft 313kts
08-Oct-23 09:35 38.349878 -107.346133 66 27198ft 314kts
08-Oct-23 09:36 38.384027 -107.244018 66 27257ft 314kts
08-Oct-23 09:37 38.418240 -107.141295 66 27331ft 314kts
08-Oct-23 09:38 38.452281 -107.038723 66 27399ft 314kts
08-Oct-23 09:39 38.486218 -106.935752 66 27422ft 314kts
08-Oct-23 09:40 38.519893 -106.833286 66 27428ft 313kts
08-Oct-23 09:41 38.553558 -106.730395 66 27364ft 314kts
08-Oct-23 09:42 38.587206 -106.627163 66 27289ft 315kts
08-Oct-23 09:43 38.620745 -106.523987 66 27225ft 315kts
08-Oct-23 09:44 38.654286 -106.420404 66 27246ft 315kts
08-Oct-23 09:45 38.687782 -106.316547 66 27302ft 315kts
08-Oct-23 09:46 38.721099 -106.212868 66 27340ft 315kts
08-Oct-23 09:47 38.754382 -106.108920 67 27365ft 314kts
08-Oct-23 09:48 38.799281 -106.015225 50 27383ft 311kts
08-Oct-23 09:49 38.854263 -105.929529 49 27321ft 311kts
08-Oct-23 09:50 38.909515 -105.844492 49 27251ft 311kts
08-Oct-23 09:51 38.964947 -105.759092 49 27174ft 311kts
08-Oct-23 09:52 39.020298 -105.673605 49 27072ft 312kts
08-Oct-23 09:53 39.079223 -105.582193 49 24250ft 336kts
08-Oct-23 09:54 39.139096 -105.489078 49 21239ft 339kts
08-Oct-23 09:55 39.199404 -105.395211 49 18403ft 340kts
08-Oct-23 09:57 39.258241 -105.303206 49 15381ft 323kts
08-Oct-23 09:58 39.312439 -105.218523 49 14486ft 300kts
08-Oct-23 09:59 39.364162 -105.133403 51 13048ft 301kts
08-Oct-23 10:00 39.415197 -105.049306 51 11612ft 294kts
08-Oct-23 10:01 39.464365 -104.968804 50 10995ft 271kts
08-Oct-23 10:02 39.510697 -104.893720 50 11025ft 263kts
08-Oct-23 10:03 39.556086 -104.819805 50 11022ft 260kts
08-Oct-23 10:04 39.601330 -104.746366 50 11026ft 261kts
08-Oct-23 10:05 39.646615 -104.672620 50 10991ft 260kts
08-Oct-23 10:06 39.691565 -104.599428 50 11006ft 260kts
08-Oct-23 10:07 39.737755 -104.527006 34 11003ft 257kts
08-Oct-23 10:08 39.807176 -104.518871 358 10995ft 252kts
08-Oct-23 10:09 39.876613 -104.520378 358 10996ft 242kts
08-Oct-23 10:10 39.941170 -104.521715 358 9673ft 209kts
08-Oct-23 10:11 39.997100 -104.523482 358 8129ft 198kts
08-Oct-23 10:12 40.045770 -104.542104 289 7889ft 198kts
08-Oct-23 10:13 40.043023 -104.615309 254 7901ft 208kts
08-Oct-23 10:14 39.995473 -104.656141 205 7939ft 209kts
08-Oct-23 10:15 39.944907 -104.659146 179 7089ft 172kts
08-Oct-23 10:16 39.907119 -104.659540 180 6401ft 133kts
08-Oct-23 10:17 39.869652 -104.660105 180 5627ft 114kts
08-Oct-23 10:18 39.845645 -104.660386 181 5361ft 31kts
08-Oct-23 10:19 39.840147 -104.662784 269 5360ft 13kts

Navigation Log

Ident Type
Flight plan parsing failed, navigation log unavailable